Latest Coastal Weather Observations for Geelong Racecourse

IDV60701

Issued at 5:42 am EDT Monday 27 March 2017 (issued every 10 minutes, with the page automatically refreshed every 10 minutes)

About coastal observations | Map of coastal stations | Coastal observations for VIC | Marine services | Other Formats
Station Details ID: 087184 Name: GEELONG RACECOURSE Lat: -38.17 Lon: 144.38 Height: 12.9 m
Data from the previous 72 hours. | See also: Recent months at Geelong Racecourse
Date/Time
EDT
Temp
°C
Wind Pressure Rain since
9am
mm
Weather Cloud Vis
km
Sea
Height
m
Swell
Dir  Spd
kts
Gust
kts
hPa Trend Height
m
Period
s
Dir
27/05:30am 20.6 NE 5 8 1004.9 - 0.0 - - - - - - -
27/05:00am 20.0 NE 4 5 1005.3 - 0.0 - - - - - - -
27/04:30am 20.3 ENE 5 5 1005.8 - 0.0 - - - - - - -
27/04:00am 20.5 NNE 2 6 1006.3 - 0.0 - - - - - - -
27/03:30am 20.4 NE 5 8 1006.4 - 0.0 - - - - - - -
27/03:00am 20.1 NE 4 7 1007.0 - 0.0 - - - - - - -
27/02:30am 19.7 NNE 5 9 1007.5 - 0.0 - - - - - - -
27/02:00am 19.7 NNE 5 7 1008.1 - 0.0 - - - - - - -
27/01:30am 19.9 NNE 5 7 1008.5 - 0.0 - - - - - - -
27/01:00am 19.7 N 5 7 1009.4 - 0.0 - - - - - - -
27/12:30am 19.8 NNE 5 7 1009.6 - 0.0 - - - - - - -
27/12:00am 19.1 NNE 3 4 1010.1 - 0.0 - - - - - - -
 
Date/Time
EDT
Temp
°C
Wind Pressure Rain since
9am
mm
Weather Cloud Vis
km
Sea
Height
m
Swell
Dir  Spd
kts
Gust
kts
hPa Trend Height
m
Period
s
Dir
26/11:30pm 18.7 NNE 2 3 1010.8 - 0.0 - - - - - - -
26/11:00pm 17.4 CALM 0 2 1011.1 - 0.0 - - - - - - -
26/10:30pm 17.2 CALM 0 0 1011.6 - 0.0 - - - - - - -
26/10:00pm 17.3 CALM 0 0 1011.7 - 0.0 - - - - - - -
26/09:30pm 17.4 W 1 1 1011.9 - 0.0 - - - - - - -
26/09:00pm 17.6 S 1 3 1012.1 - 0.0 - - - - - - -
26/08:30pm 18.3 SSE 3 4 1012.0 - 0.0 - - - - - - -
26/08:00pm 18.8 SSE 4 5 1012.2 - 0.0 - - - - - - -
26/07:30pm 19.4 SSE 6 9 1011.8 - 0.0 - - - - - - -
26/07:00pm 20.0 SE 6 10 1012.0 - 0.0 - - - - - - -
26/06:30pm 21.0 SSE 7 9 1012.0 - 0.0 - - - - - - -
26/06:00pm 21.8 SSE 7 9 1012.0 - 0.0 - - - - - - -
26/05:30pm 22.3 S 7 9 1011.9 - 0.0 - - - - - - -
26/05:00pm 22.6 S 7 11 1012.1 - 0.0 - - - - - - -
26/04:30pm 23.0 S 7 11 1012.2 - 0.0 - - - - - - -
26/04:00pm 23.6 E 2 5 1012.2 - 0.0 - - - - - - -
26/03:30pm 23.1 SSW 2 5 1012.4 - 0.0 - - - - - - -
26/03:00pm 22.6 E 3 6 1012.7 - 0.0 - - - - - - -
26/02:30pm 21.8 E 3 5 1013.2 - 0.0 - - - - - - -
26/02:00pm 22.1 E 1 5 1013.7 - 0.0 - - - - - - -
26/01:30pm 21.5 E 2 4 1014.2 - 0.0 - - - - - - -
26/01:00pm 21.0 NNE 3 5 1014.6 - 0.0 - - - - - - -
26/12:30pm 20.9 NE 3 6 1014.9 - 0.0 - - - - - - -
26/12:00pm 20.6 ESE 2 3 1015.3 - 0.0 - - - - - - -
26/11:30am 20.3 SE 4 5 1015.6 - 0.0 - - - - - - -
26/11:00am 20.1 SE 3 4 1015.8 - 0.0 - - - - - - -
26/10:30am 19.9 SSE 4 5 1016.0 - 0.0 - - - - - - -
26/10:00am 19.3 SE 4 6 1015.9 - 0.0 - - - - - - -
26/09:30am 18.9 SE 3 4 1015.7 - 0.0 - - - - - - -
26/09:00am 18.7 SE 2 3 1015.4 - 0.0 - - - - - - -
26/08:30am 18.5 SE 3 4 1015.0 - 0.0 - - - - - - -
26/08:00am 18.5 S 2 3 1014.9 - 0.0 - - - - - - -
26/07:30am 18.5 SSE 2 3 1014.6 - 0.0 - - - - - - -
26/07:00am 18.6 SSE 2 3 1014.5 - 0.0 - - - - - - -
26/06:30am 18.6 SSE 2 3 1014.1 - 0.0 - - - - - - -
26/06:00am 18.5 SSE 2 3 1014.1 - 0.0 - - - - - - -
26/05:30am 18.7 CALM 0 1 1013.9 - 0.0 - - - - - - -
26/05:00am 18.7 CALM 0 0 1014.1 - 0.0 - - - - - - -
26/04:30am 18.5 CALM 0 0 1013.7 - 0.0 - - - - - - -
26/04:00am 18.6 W 1 1 1014.0 - 0.0 - - - - - - -
26/03:30am 18.5 SSW 4 5 1014.1 - 0.0 - - - - - - -
26/03:00am 18.2 SW 2 3 1014.1 - 0.0 - - - - - - -
26/02:30am 18.0 W 1 2 1014.5 - 0.0 - - - - - - -
26/02:00am 17.9 SW 4 4 1014.5 - 0.0 - - - - - - -
26/01:30am 17.9 SW 4 6 1014.8 - 0.0 - - - - - - -
26/01:00am 18.3 SW 5 7 1014.7 - 0.0 - - - - - - -
26/12:30am 18.4 W 2 3 1014.8 - 0.0 - - - - - - -
26/12:00am 18.6 SW 1 2 1014.8 - 0.0 - - - - - - -
 
Date/Time
EDT
Temp
°C
Wind Pressure Rain since
9am
mm
Weather Cloud Vis
km
Sea
Height
m
Swell
Dir  Spd
kts
Gust
kts
hPa Trend Height
m
Period
s
Dir
25/11:30pm 18.6 SSW 1 2 1014.7 - 0.0 - - - - - - -
25/11:00pm 18.4 SSW 4 7 1014.5 - 0.0 - - - - - - -
25/10:30pm 18.7 SSW 8 12 1014.1 - 0.0 - - - - - - -
25/10:00pm 18.7 SSW 8 12 1014.1 - 0.0 - - - - - - -
25/09:30pm 19.0 SSW 11 15 1013.5 - 0.0 - - - - - - -
25/09:00pm 19.5 SSW 10 15 1013.3 - 0.0 - - - - - - -
25/08:30pm 20.2 SSW 10 15 1012.9 - 0.0 - - - - - - -
25/08:00pm 21.6 S 11 17 1012.3 - 0.0 - - - - - - -
25/07:30pm 22.4 S 8 10 1011.7 - 0.0 - - - - - - -
25/07:00pm 23.0 S 8 10 1011.4 - 0.0 - - - - - - -
25/06:30pm 23.5 S 8 12 1011.1 - 0.0 - - - - - - -
25/06:00pm 24.6 SSE 9 13 1010.8 - 0.0 - - - - - - -
25/05:30pm 25.9 S 9 12 1010.4 - 0.0 - - - - - - -
25/05:00pm 26.9 S 9 12 1010.1 - 0.0 - - - - - - -
25/04:30pm 27.4 S 8 10 1010.0 - 0.0 - - - - - - -
25/04:00pm 27.9 ESE 5 8 1010.0 - 0.0 - - - - - - -
25/03:30pm 27.8 SE 6 9 1009.9 - 0.0 - - - - - - -
25/03:00pm 27.9 ESE 5 10 1010.1 - 0.0 - - - - - - -
25/02:30pm 28.4 NE 4 6 1010.3 - 0.0 - - - - - - -
25/02:00pm 26.8 NE 5 7 1010.5 - 0.0 - - - - - - -
25/01:30pm 28.3 NNE 4 7 1010.7 - 0.0 - - - - - - -
25/01:00pm 27.9 ESE 2 4 1011.2 - 0.0 - - - - - - -
25/12:30pm 26.9 NE 4 6 1011.5 - 0.0 - - - - - - -
25/12:00pm 26.3 E 4 6 1011.9 - 0.0 - - - - - - -
25/11:30am 25.0 NE 3 5 1012.3 - 0.0 - - - - - - -
25/11:00am 23.4 NNE 3 5 1012.4 - 0.0 - - - - - - -
25/10:30am 23.5 NE 3 5 1012.5 - 0.0 - - - - - - -
25/10:00am 22.1 NE 4 6 1012.3 - 0.0 - - - - - - -
25/09:30am 21.1 NNE 3 5 1012.5 - 0.0 - - - - - - -
25/09:00am 19.5 CALM 0 1 1012.1 - 0.0 - - - - - - -
25/08:30am 18.7 CALM 0 3 1012.2 - 0.0 - - - - - - -
25/08:00am 18.9 NE 3 4 1011.9 - 0.0 - - - - - - -
25/07:30am 18.7 NE 2 3 1011.7 - 0.0 - - - - - - -
25/07:00am 18.6 N 2 3 1011.6 - 0.0 - - - - - - -
25/06:30am 18.4 CALM 0 0 1011.5 - 0.0 - - - - - - -
25/06:00am 18.4 ENE 1 3 1011.5 - 0.0 - - - - - - -
25/05:30am 18.3 NE 2 3 1011.6 - 0.0 - - - - - - -
25/05:00am 18.3 N 1 1 1011.8 - 0.0 - - - - - - -
25/04:30am 18.3 NNE 3 4 1011.5 - 0.0 - - - - - - -
25/04:00am 18.4 NNE 1 3 1011.8 - 0.0 - - - - - - -
25/03:30am 18.6 NNE 2 3 1012.2 - 0.0 - - - - - - -
25/03:00am 18.8 NNE 2 3 1012.5 - 0.0 - - - - - - -
25/02:30am 17.5 NE 3 5 1012.8 - 0.0 - - - - - - -
25/02:00am 17.2 E 1 1 1013.8 - 0.0 - - - - - - -
25/01:30am 17.1 SE 1 2 1014.3 - 0.0 - - - - - - -
25/01:00am 17.3 SSW 3 4 1015.2 - 0.0 - - - - - - -
25/12:30am 17.5 SSE 2 3 1014.8 - 0.0 - - - - - - -
25/12:00am 17.9 SSE 2 3 1015.2 - 0.0 - - - - - - -
 
Date/Time
EDT
Temp
°C
Wind Pressure Rain since
9am
mm
Weather Cloud Vis
km
Sea
Height
m
Swell
Dir  Spd
kts
Gust
kts
hPa Trend Height
m
Period
s
Dir
24/11:30pm 18.3 ENE 3 4 1014.8 - 0.0 - - - - - - -
24/11:00pm 17.9 NE 4 7 1015.0 - 0.0 - - - - - - -
24/10:30pm 17.3 CALM 0 0 1015.2 - 0.0 - - - - - - -
24/10:00pm 17.1 CALM 0 0 1015.5 - 0.0 - - - - - - -
24/09:30pm 17.2 SSW 2 3 1015.6 - 0.0 - - - - - - -
24/09:00pm 17.7 S 2 3 1015.8 - 0.0 - - - - - - -
24/08:30pm 18.1 SSW 3 5 1015.8 - 0.0 - - - - - - -
24/08:00pm 18.6 S 3 5 1015.6 - 0.0 - - - - - - -
24/07:30pm 19.3 S 3 5 1015.6 - 0.0 - - - - - - -
24/07:00pm 19.8 S 5 7 1016.0 - 0.0 - - - - - - -
24/06:30pm 20.9 SSE 6 8 1015.4 - 0.0 - - - - - - -
24/06:00pm 22.6 SE 4 7 1015.3 - 0.0 - - - - - - -
24/05:30pm 22.4 ENE 3 5 1015.7 - 0.0 - - - - - - -
24/05:00pm 22.3 SE 3 5 1015.5 - 0.0 - - - - - - -
24/04:30pm 22.7 E 2 5 1015.4 - 0.0 - - - - - - -
24/04:00pm 22.3 NE 4 5 1016.0 - 0.0 - - - - - - -
24/03:30pm 22.2 E 5 9 1016.0 - 0.0 - - - - - - -
24/03:00pm 21.9 NE 5 7 1016.5 - 0.0 - - - - - - -
24/02:30pm 21.5 ENE 3 6 1017.2 - 0.0 - - - - - - -
24/02:00pm 20.8 NNE 6 9 1017.8 - 0.0 - - - - - - -
24/01:30pm 20.3 NE 6 9 1018.2 - 0.0 - - - - - - -
24/01:00pm 20.8 NE 7 10 1018.7 - 0.0 - - - - - - -
24/12:30pm 20.7 ENE 5 11 1019.0 - 0.0 - - - - - - -
24/12:00pm 19.8 SE 7 10 1019.4 - 0.0 - - - - - - -
24/11:30am 19.4 SE 5 8 1019.9 - 0.0 - - - - - - -
24/11:00am 19.6 SE 7 10 1019.9 - 0.0 - - - - - - -
24/10:30am 19.7 ESE 6 10 1019.8 - 0.0 - - - - - - -
24/10:00am 18.6 ESE 7 10 1020.0 - 0.0 - - - - - - -
24/09:30am 17.8 ESE 4 7 1020.2 - 0.0 - - - - - - -
24/09:00am 17.3 SSE 5 7 1019.9 - 0.0 - - - - - - -
24/08:30am 15.3 SSE 4 5 1019.7 - 0.0 - - - - - - -
24/08:00am 14.6 S 3 4 1019.6 - 0.0 - - - - - - -
24/07:30am 13.5 WSW 2 3 1019.5 - 0.0 - - - - - - -
24/07:00am 12.6 CALM 0 0 1019.0 - 0.0 - - - - - - -
24/06:30am 13.0 CALM 0 0 1019.0 - 0.0 - - - - - - -
24/06:00am 13.7 SSE 3 4 1019.0 - 0.0 - - - - - - -

Other Formats:

Comma delimited format used in spreadsheet applications
http://www.bom.gov.au/fwo/IDV60701/IDV60701.94857.axf

JavaScript Object Notation format (JSON) in row-major order
http://www.bom.gov.au/fwo/IDV60701/IDV60701.94857.json